createdAt,value
2022-10-31T00:02:02.177Z,86.00
2022-10-31T00:04:05.031Z,86.17
2022-10-31T00:06:07.180Z,86.04
2022-10-31T00:08:09.130Z,86.22
2022-10-31T00:10:11.386Z,86.35
2022-10-31T00:12:13.215Z,85.42
2022-10-31T00:14:15.346Z,85.73
2022-10-31T00:16:19.989Z,85.20
2022-10-31T00:18:21.831Z,85.24
2022-10-31T00:20:23.687Z,85.20
2022-10-31T00:22:26.118Z,85.17
2022-10-31T00:24:27.915Z,85.94
2022-10-31T00:26:31.268Z,86.35
2022-10-31T00:28:34.412Z,86.02
2022-10-31T00:30:36.234Z,85.58
2022-10-31T00:32:38.027Z,85.69
2022-10-31T00:34:40.129Z,85.65
2022-10-31T00:36:42.027Z,85.29
2022-10-31T00:38:45.111Z,85.08
2022-10-31T00:40:47.340Z,84.88
2022-10-31T00:42:49.203Z,84.64
2022-10-31T00:44:51.070Z,84.53
2022-10-31T00:46:53.226Z,84.75
2022-10-31T00:48:55.080Z,84.89
2022-10-31T00:50:57.751Z,84.68
2022-10-31T00:52:59.822Z,85.02
2022-10-31T00:55:01.718Z,85.62
2022-10-31T00:57:04.104Z,85.35
2022-10-31T00:59:06.265Z,85.48
2022-10-31T01:01:08.333Z,85.89
2022-10-31T01:03:10.281Z,85.95
2022-10-31T01:05:12.827Z,85.87
2022-10-31T01:07:15.162Z,85.94
2022-10-31T01:09:17.131Z,85.41
2022-10-31T01:11:22.188Z,85.16
2022-10-31T01:13:24.286Z,84.52
2022-10-31T01:15:26.168Z,84.56
2022-10-31T01:17:28.327Z,84.15
2022-10-31T01:19:30.173Z,84.18
2022-10-31T01:21:32.030Z,84.25
2022-10-31T01:23:34.988Z,83.92
2022-10-31T01:25:36.794Z,84.30
2022-10-31T01:27:38.783Z,84.57
2022-10-31T01:29:40.880Z,84.68
2022-10-31T01:31:42.673Z,84.89
2022-10-31T01:33:44.728Z,85.54
2022-10-31T01:35:46.861Z,85.73
2022-10-31T01:37:48.659Z,85.46
2022-10-31T01:39:50.539Z,85.48
2022-10-31T01:41:54.360Z,85.07
2022-10-31T01:43:59.131Z,84.80
2022-10-31T01:46:01.166Z,86.34
2022-10-31T01:48:03.550Z,86.31
2022-10-31T01:50:12.455Z,85.83
2022-10-31T01:52:22.294Z,85.36
2022-10-31T01:54:30.395Z,85.89
2022-10-31T01:56:34.635Z,86.05
2022-10-31T01:58:36.939Z,87.60
2022-10-31T02:00:40.657Z,86.49
2022-10-31T02:02:43.864Z,85.51
2022-10-31T02:04:48.534Z,86.58
2022-10-31T02:06:59.601Z,87.87
2022-10-31T02:09:03.446Z,87.64
2022-10-31T02:11:06.352Z,88.02
2022-10-31T02:13:09.609Z,87.89
2022-10-31T02:15:11.484Z,88.09
2022-10-31T02:17:14.045Z,87.79
2022-10-31T02:19:44.957Z,87.91
2022-10-31T02:22:05.178Z,87.89
2022-10-31T02:25:02.715Z,87.55
2022-10-31T02:27:10.392Z,87.78
2022-10-31T02:29:15.137Z,88.75
2022-10-31T02:31:29.926Z,88.97
2022-10-31T02:33:41.297Z,88.98
2022-10-31T02:35:50.814Z,89.72
2022-10-31T02:38:03.793Z,88.78
2022-10-31T02:40:11.584Z,88.36
2022-10-31T02:42:31.571Z,89.83
2022-10-31T02:44:56.150Z,89.96
2022-10-31T02:47:09.960Z,89.75
2022-10-31T02:49:51.530Z,90.48
2022-10-31T02:51:53.526Z,90.34
2022-10-31T02:53:55.694Z,90.47
2022-10-31T02:56:01.303Z,90.31
2022-10-31T02:58:12.217Z,90.21
2022-10-31T03:00:14.757Z,89.65
2022-10-31T03:02:31.573Z,90.04
2022-10-31T03:04:53.780Z,90.86
2022-10-31T03:07:44.428Z,90.36
2022-10-31T03:10:05.555Z,90.19
2022-10-31T03:12:43.142Z,90.09
2022-10-31T03:15:20.655Z,90.22
2022-10-31T03:17:29.429Z,90.36
2022-10-31T03:19:38.783Z,90.54
2022-10-31T03:21:47.463Z,90.33
2022-10-31T03:23:52.596Z,91.03
2022-10-31T03:25:55.903Z,90.70
2022-10-31T03:28:01.000Z,90.52
2022-10-31T03:30:06.599Z,90.21
2022-10-31T03:32:20.836Z,89.60
2022-10-31T03:34:24.368Z,89.27
2022-10-31T03:36:28.353Z,88.89
2022-10-31T03:38:30.826Z,89.02
2022-10-31T03:40:36.156Z,88.83
2022-10-31T03:42:42.359Z,88.91
2022-10-31T03:44:51.089Z,88.93
2022-10-31T03:46:52.998Z,88.79
2022-10-31T03:48:55.452Z,88.84
2022-10-31T03:51:10.483Z,88.32
2022-10-31T03:53:21.721Z,88.87
2022-10-31T03:55:40.329Z,89.18
2022-10-31T03:57:49.071Z,89.03
2022-10-31T04:00:04.713Z,89.12
2022-10-31T04:02:11.799Z,88.83
2022-10-31T04:04:15.181Z,88.45
2022-10-31T04:06:20.092Z,88.54
2022-10-31T04:08:27.474Z,88.10
2022-10-31T04:10:32.945Z,88.55
2022-10-31T04:12:37.066Z,88.99
2022-10-31T04:14:41.475Z,89.18
2022-10-31T04:16:44.967Z,88.94
2022-10-31T04:18:46.954Z,88.16
2022-10-31T04:20:51.888Z,88.29
2022-10-31T04:22:53.811Z,88.95
2022-10-31T04:24:55.590Z,88.79
2022-10-31T04:26:57.877Z,88.58
2022-10-31T04:28:59.677Z,89.27
2022-10-31T04:31:01.976Z,89.80
2022-10-31T04:33:04.150Z,90.52
2022-10-31T04:35:06.484Z,90.68
2022-10-31T04:37:08.326Z,90.74
2022-10-31T04:39:10.692Z,90.56
2022-10-31T04:41:12.481Z,91.24
2022-10-31T04:43:14.485Z,90.71
2022-10-31T04:45:20.107Z,91.04
2022-10-31T04:47:23.608Z,90.98
2022-10-31T04:49:25.392Z,90.69
2022-10-31T04:51:27.583Z,90.70
2022-10-31T04:53:30.170Z,90.94
2022-10-31T04:55:32.479Z,91.06
2022-10-31T04:57:42.748Z,91.34
2022-10-31T04:59:44.650Z,91.28
2022-10-31T05:01:46.539Z,91.67
2022-10-31T05:03:48.852Z,91.81
2022-10-31T05:05:50.833Z,90.88
2022-10-31T05:07:53.390Z,90.68
2022-10-31T05:09:55.492Z,91.39
2022-10-31T05:11:57.324Z,91.51
2022-10-31T05:13:59.169Z,90.92
2022-10-31T05:16:01.254Z,90.37
2022-10-31T05:18:03.566Z,90.75
2022-10-31T05:20:06.251Z,90.68
2022-10-31T05:22:08.458Z,89.75
2022-10-31T05:24:10.421Z,89.86
2022-10-31T05:26:12.316Z,89.92
2022-10-31T05:28:14.419Z,90.13
2022-10-31T05:30:19.704Z,89.69
2022-10-31T05:32:21.559Z,88.82
2022-10-31T05:34:23.679Z,88.75
2022-10-31T05:36:25.493Z,88.60
2022-10-31T05:38:27.422Z,88.30
2022-10-31T05:40:30.059Z,88.00
2022-10-31T05:42:31.958Z,87.69
2022-10-31T05:44:33.836Z,87.67
2022-10-31T05:46:35.981Z,87.68
2022-10-31T05:48:37.822Z,87.72
2022-10-31T05:50:39.642Z,87.67
2022-10-31T05:52:41.781Z,87.39
2022-10-31T05:54:43.689Z,86.34
2022-10-31T05:56:45.563Z,87.05
2022-10-31T05:58:47.728Z,86.32
2022-10-31T06:00:49.599Z,85.45
2022-10-31T06:02:59.996Z,86.34
2022-10-31T06:05:03.442Z,85.52
2022-10-31T06:07:05.356Z,86.93
2022-10-31T06:09:07.242Z,86.11
2022-10-31T06:11:09.383Z,84.94
2022-10-31T06:13:11.629Z,84.88
2022-10-31T06:15:13.820Z,84.02
2022-10-31T06:17:16.252Z,83.57
2022-10-31T06:19:18.109Z,79.54
2022-10-31T06:21:20.327Z,79.22
2022-10-31T06:23:22.471Z,75.89
2022-10-31T06:25:24.855Z,75.21
2022-10-31T06:27:27.555Z,74.56
2022-10-31T06:29:29.573Z,70.44
2022-10-31T06:31:31.418Z,70.48
2022-10-31T06:33:35.076Z,68.33
2022-10-31T06:35:37.189Z,64.44
2022-10-31T06:37:39.134Z,61.80
2022-10-31T06:39:41.178Z,60.98
2022-10-31T06:41:43.330Z,58.81
2022-10-31T06:43:48.330Z,58.36
2022-10-31T06:45:50.321Z,56.76
2022-10-31T06:48:15.408Z,56.27
2022-10-31T06:50:16.332Z,54.67
2022-10-31T06:52:18.296Z,53.87
2022-10-31T06:54:20.416Z,53.78
2022-10-31T06:56:22.457Z,51.58
2022-10-31T06:58:24.532Z,52.26
2022-10-31T07:00:29.482Z,50.57
2022-10-31T07:02:31.374Z,51.14
2022-10-31T07:04:33.522Z,50.23
2022-10-31T07:06:35.623Z,49.70
2022-10-31T07:08:37.510Z,49.97
2022-10-31T07:10:42.020Z,48.95
2022-10-31T07:12:44.253Z,48.40
2022-10-31T07:14:46.235Z,48.85
2022-10-31T07:16:52.116Z,44.81
2022-10-31T07:18:54.240Z,44.53
2022-10-31T07:20:56.155Z,45.67
2022-10-31T07:22:58.606Z,44.13
2022-10-31T07:25:01.018Z,44.21
2022-10-31T07:27:02.900Z,44.24
2022-10-31T07:29:04.902Z,43.74
2022-10-31T07:31:07.356Z,44.13
2022-10-31T07:33:09.575Z,42.80
2022-10-31T07:35:18.089Z,42.07
2022-10-31T07:37:20.285Z,43.02
2022-10-31T07:39:22.148Z,42.23
2022-10-31T07:41:24.457Z,43.21
2022-10-31T07:43:27.184Z,42.51
2022-10-31T07:45:32.360Z,42.59
2022-10-31T07:47:51.736Z,43.23
2022-10-31T07:49:53.951Z,43.42
2022-10-31T07:51:56.278Z,43.71
2022-10-31T07:53:58.261Z,44.32
2022-10-31T07:56:00.514Z,44.53
2022-10-31T07:58:08.330Z,44.61
2022-10-31T08:00:11.237Z,44.11
2022-10-31T08:02:13.430Z,43.95
2022-10-31T08:04:15.310Z,43.29
2022-10-31T08:06:17.148Z,43.59
2022-10-31T08:08:19.311Z,45.69
2022-10-31T08:10:21.962Z,44.79
2022-10-31T08:12:23.866Z,45.72
2022-10-31T08:14:26.026Z,44.36
2022-10-31T08:16:28.382Z,44.92
2022-10-31T08:18:30.870Z,43.52
2022-10-31T08:20:32.957Z,45.32
2022-10-31T08:22:37.543Z,44.28
2022-10-31T08:24:41.662Z,44.29
2022-10-31T08:26:43.969Z,44.52
2022-10-31T08:28:46.070Z,45.11
2022-10-31T08:30:48.440Z,44.14
2022-10-31T08:33:20.153Z,46.08
2022-10-31T08:35:21.934Z,45.20
2022-10-31T08:37:25.230Z,45.67
2022-10-31T08:39:27.342Z,45.71
2022-10-31T08:41:29.638Z,44.99
2022-10-31T08:43:31.432Z,45.20
2022-10-31T08:45:35.121Z,45.43
2022-10-31T08:47:36.980Z,45.64
2022-10-31T08:49:39.054Z,46.97
2022-10-31T08:51:41.238Z,46.65
2022-10-31T08:53:43.594Z,45.05
2022-10-31T08:55:46.833Z,45.27
2022-10-31T08:57:49.496Z,45.80
2022-10-31T08:59:51.920Z,46.06
2022-10-31T09:01:53.989Z,46.05
2022-10-31T09:03:57.459Z,46.20
2022-10-31T09:06:01.967Z,46.94
2022-10-31T09:08:14.832Z,46.27
2022-10-31T09:10:18.520Z,45.25
2022-10-31T09:12:20.641Z,45.82
2022-10-31T09:14:22.462Z,46.02
2022-10-31T09:16:24.662Z,46.21
2022-10-31T09:18:29.019Z,45.89
2022-10-31T09:20:32.414Z,46.65
2022-10-31T09:22:35.736Z,47.01
2022-10-31T09:24:37.818Z,48.92
2022-10-31T09:26:39.629Z,47.09
2022-10-31T09:28:41.862Z,48.52
2022-10-31T09:30:43.806Z,47.91
2022-10-31T09:32:45.654Z,47.84
2022-10-31T09:34:49.131Z,47.53
2022-10-31T09:36:54.652Z,47.82
2022-10-31T09:38:56.538Z,47.18
2022-10-31T09:41:20.284Z,48.03
2022-10-31T09:43:31.153Z,49.10
2022-10-31T09:46:15.185Z,47.60
2022-10-31T09:48:43.755Z,49.45
2022-10-31T09:50:50.885Z,51.55
2022-10-31T09:53:04.168Z,51.13
2022-10-31T09:55:20.244Z,51.80
2022-10-31T09:57:34.040Z,52.04
2022-10-31T09:59:40.058Z,51.37
2022-10-31T10:02:25.899Z,53.00
2022-10-31T10:04:46.709Z,52.60
2022-10-31T10:06:52.348Z,53.03
2022-10-31T10:08:54.855Z,52.89
2022-10-31T10:11:17.661Z,53.41
2022-10-31T10:13:41.707Z,52.30
2022-10-31T10:16:04.976Z,54.13
2022-10-31T10:18:37.602Z,53.94
2022-10-31T10:21:05.099Z,52.32
2022-10-31T10:23:47.195Z,53.74
2022-10-31T10:26:00.238Z,54.09
2022-10-31T10:28:13.089Z,54.75
2022-10-31T10:30:21.969Z,54.41
2022-10-31T10:32:31.566Z,55.00
2022-10-31T10:34:40.619Z,54.34
2022-10-31T10:36:47.804Z,54.22
2022-10-31T10:38:54.796Z,53.87
2022-10-31T10:40:58.884Z,53.77
2022-10-31T10:43:32.915Z,54.27
2022-10-31T10:45:53.958Z,53.96
2022-10-31T10:48:11.614Z,53.90
2022-10-31T10:50:13.459Z,53.56
2022-10-31T10:52:50.880Z,52.71
2022-10-31T10:55:16.303Z,53.64
2022-10-31T10:57:37.239Z,53.96
2022-10-31T10:59:39.303Z,53.11
2022-10-31T11:01:42.840Z,53.35
2022-10-31T11:03:44.960Z,53.20
2022-10-31T11:06:02.914Z,52.70
2022-10-31T11:08:07.002Z,53.12
2022-10-31T11:10:17.610Z,52.44
2022-10-31T11:12:32.624Z,52.82
2022-10-31T11:14:43.635Z,52.71
2022-10-31T11:16:48.924Z,52.73
2022-10-31T11:18:51.028Z,53.47
2022-10-31T11:21:00.700Z,53.64
2022-10-31T11:23:27.152Z,53.28
2022-10-31T11:25:29.103Z,53.80
2022-10-31T11:27:31.084Z,52.80
2022-10-31T11:29:33.362Z,53.65
2022-10-31T11:31:36.561Z,53.34
2022-10-31T11:33:38.278Z,53.81
2022-10-31T11:35:41.382Z,53.68
2022-10-31T11:37:45.535Z,54.12
2022-10-31T11:39:57.202Z,54.62
2022-10-31T11:42:08.512Z,55.18
2022-10-31T11:44:21.458Z,55.20
2022-10-31T11:46:26.807Z,56.14
2022-10-31T11:48:29.185Z,56.28
2022-10-31T11:50:41.231Z,55.88
2022-10-31T11:52:43.275Z,55.77
2022-10-31T11:54:57.079Z,56.16
2022-10-31T11:56:59.203Z,55.92
2022-10-31T11:59:05.293Z,56.54
2022-10-31T12:01:31.417Z,55.67
2022-10-31T12:03:43.578Z,55.59
2022-10-31T12:05:49.679Z,55.97
2022-10-31T12:07:53.466Z,56.52
2022-10-31T12:09:56.174Z,56.28
2022-10-31T12:12:36.671Z,56.07
2022-10-31T12:15:09.673Z,55.90
2022-10-31T12:17:23.557Z,56.69
2022-10-31T12:19:51.255Z,56.65
2022-10-31T12:22:35.945Z,57.05
2022-10-31T12:25:08.924Z,57.37
2022-10-31T12:27:22.430Z,57.08
2022-10-31T12:29:24.464Z,57.02
2022-10-31T12:32:05.099Z,56.87
2022-10-31T12:34:26.018Z,56.90
2022-10-31T12:36:30.941Z,56.93
2022-10-31T12:39:14.943Z,57.13
2022-10-31T12:41:49.657Z,56.98
2022-10-31T12:43:58.696Z,56.70
2022-10-31T12:46:02.972Z,57.46
2022-10-31T12:48:29.935Z,57.15
2022-10-31T12:50:56.374Z,56.73
2022-10-31T12:53:13.332Z,56.94
2022-10-31T12:55:48.853Z,56.60
2022-10-31T12:57:59.412Z,56.56
2022-10-31T13:00:13.096Z,55.26
2022-10-31T13:02:36.714Z,55.59
2022-10-31T13:05:04.724Z,55.48
2022-10-31T13:07:13.275Z,55.79
2022-10-31T13:09:20.732Z,55.46
2022-10-31T13:11:44.655Z,55.82
2022-10-31T13:13:53.566Z,57.53
2022-10-31T13:16:02.507Z,57.63
2022-10-31T13:18:14.000Z,57.39
2022-10-31T13:20:42.033Z,58.74
2022-10-31T13:22:47.954Z,58.48
2022-10-31T13:25:00.484Z,59.39
2022-10-31T13:27:12.321Z,59.24
2022-10-31T13:29:32.692Z,58.14
2022-10-31T13:31:34.995Z,58.56
2022-10-31T13:33:44.299Z,59.09
2022-10-31T13:35:52.135Z,60.72
2022-10-31T13:38:01.572Z,60.23
2022-10-31T13:40:06.933Z,59.71
2022-10-31T13:42:24.479Z,60.35
2022-10-31T13:44:28.903Z,60.21
2022-10-31T13:46:34.118Z,61.11
2022-10-31T13:48:40.261Z,61.41
2022-10-31T13:50:44.270Z,62.22
2022-10-31T13:52:46.615Z,62.89
2022-10-31T13:54:56.880Z,62.88
2022-10-31T13:56:59.261Z,63.74
2022-10-31T13:59:04.190Z,62.71
2022-10-31T14:01:12.242Z,64.10
2022-10-31T14:03:36.263Z,64.04
2022-10-31T14:05:43.470Z,63.95
2022-10-31T14:07:47.586Z,65.39
2022-10-31T14:09:52.314Z,66.50
2022-10-31T14:11:56.185Z,66.12
2022-10-31T14:13:59.898Z,66.00
2022-10-31T14:16:06.116Z,66.29
2022-10-31T14:18:39.158Z,66.81
2022-10-31T14:20:42.957Z,66.88
2022-10-31T14:22:45.000Z,66.83
2022-10-31T14:24:47.347Z,68.43
2022-10-31T14:27:01.884Z,68.15
2022-10-31T14:29:16.065Z,68.42
2022-10-31T14:31:39.698Z,69.25
2022-10-31T14:33:43.589Z,69.74
2022-10-31T14:35:54.916Z,70.49
2022-10-31T14:38:16.179Z,70.31
2022-10-31T14:40:32.669Z,72.03
2022-10-31T14:43:05.540Z,73.49
2022-10-31T14:45:37.226Z,74.69
2022-10-31T14:47:48.119Z,75.32
2022-10-31T14:49:58.925Z,77.35
2022-10-31T14:52:02.380Z,77.82
2022-10-31T14:54:07.338Z,77.72
2022-10-31T14:56:12.445Z,78.76
2022-10-31T14:58:21.501Z,79.85
2022-10-31T15:00:25.732Z,80.15
2022-10-31T15:02:53.621Z,81.26
2022-10-31T15:04:56.759Z,81.21
2022-10-31T15:07:13.635Z,81.57
2022-10-31T15:09:33.299Z,82.64
2022-10-31T15:11:39.140Z,82.50
2022-10-31T15:13:50.096Z,82.84
2022-10-31T15:15:55.703Z,82.92
2022-10-31T15:18:04.713Z,84.17
2022-10-31T15:20:07.387Z,84.53
2022-10-31T15:22:15.429Z,85.72
2022-10-31T15:24:19.596Z,86.06
2022-10-31T15:26:24.589Z,86.29
2022-10-31T15:28:27.224Z,87.35
2022-10-31T15:30:30.034Z,87.43
2022-10-31T15:32:31.878Z,88.02
2022-10-31T15:34:33.669Z,88.62
2022-10-31T15:36:38.633Z,88.38
2022-10-31T15:38:40.623Z,89.08
2022-10-31T15:40:56.564Z,88.97
2022-10-31T15:43:02.974Z,89.41
2022-10-31T15:45:10.530Z,90.08
2022-10-31T15:47:21.684Z,89.55
2022-10-31T15:49:35.509Z,89.60
2022-10-31T15:51:38.991Z,90.40
2022-10-31T15:53:53.614Z,90.06
2022-10-31T15:55:59.215Z,90.59
2022-10-31T15:58:16.294Z,90.74
2022-10-31T16:00:41.729Z,91.18
2022-10-31T16:02:43.847Z,91.41
2022-10-31T16:04:55.951Z,91.30
2022-10-31T16:07:23.471Z,91.65
2022-10-31T16:09:26.478Z,91.84
2022-10-31T16:11:38.102Z,92.54
2022-10-31T16:13:58.042Z,92.15
2022-10-31T16:16:32.964Z,91.62
2022-10-31T16:18:27.138Z,91.69
2022-10-31T16:20:33.001Z,92.67
2022-10-31T16:22:39.817Z,93.33
2022-10-31T16:24:49.258Z,93.67
2022-10-31T16:26:53.978Z,93.80
2022-10-31T16:29:05.711Z,94.25
2022-10-31T16:31:15.297Z,93.61
2022-10-31T16:33:31.926Z,93.62
2022-10-31T16:35:37.710Z,93.36
2022-10-31T16:37:42.978Z,92.96
2022-10-31T16:39:44.891Z,93.08
2022-10-31T16:41:54.250Z,93.26
2022-10-31T16:43:56.186Z,92.73
2022-10-31T16:45:58.050Z,92.37
2022-10-31T16:48:10.616Z,91.77
2022-10-31T16:50:15.274Z,92.15
2022-10-31T16:52:18.447Z,92.53
2022-10-31T16:54:21.129Z,91.85
2022-10-31T16:56:31.065Z,92.05
2022-10-31T16:58:34.716Z,91.79
2022-10-31T17:00:38.334Z,91.36
2022-10-31T17:02:40.647Z,91.30
2022-10-31T17:04:43.874Z,90.71
2022-10-31T17:06:48.734Z,90.58
2022-10-31T17:08:50.599Z,90.58
2022-10-31T17:10:54.748Z,90.93
2022-10-31T17:12:58.231Z,90.79
2022-10-31T17:15:00.674Z,91.44
2022-10-31T17:17:02.527Z,90.56
2022-10-31T17:19:05.052Z,90.38
2022-10-31T17:21:07.265Z,90.93
2022-10-31T17:23:11.386Z,91.45
2022-10-31T17:25:17.469Z,91.28
2022-10-31T17:27:19.537Z,91.02
2022-10-31T17:29:21.820Z,90.59
2022-10-31T17:31:29.608Z,90.75
2022-10-31T17:33:31.718Z,90.94
2022-10-31T17:35:33.631Z,91.58
2022-10-31T17:37:36.480Z,91.15
2022-10-31T17:39:39.962Z,91.54
2022-10-31T17:41:41.729Z,91.79
2022-10-31T17:43:47.435Z,93.00
2022-10-31T17:45:49.502Z,92.69
2022-10-31T17:47:53.151Z,92.49
2022-10-31T17:49:55.389Z,92.92
2022-10-31T17:51:57.241Z,93.00
2022-10-31T17:53:59.076Z,94.24
2022-10-31T17:56:02.366Z,94.71
2022-10-31T17:58:04.484Z,95.03
2022-10-31T18:00:09.629Z,97.05
2022-10-31T18:02:12.608Z,96.58
2022-10-31T18:04:15.104Z,96.51
2022-10-31T18:06:17.531Z,97.70
2022-10-31T18:08:19.786Z,96.86
2022-10-31T18:10:21.755Z,96.91
2022-10-31T18:12:24.156Z,97.27
2022-10-31T18:14:26.540Z,96.06
2022-10-31T18:16:29.419Z,94.92
2022-10-31T18:18:31.325Z,94.70
2022-10-31T18:20:33.719Z,95.45
2022-10-31T18:22:35.670Z,95.09
2022-10-31T18:24:39.260Z,95.51
2022-10-31T18:26:41.490Z,95.39
2022-10-31T18:28:44.372Z,95.67
2022-10-31T18:30:46.480Z,95.68
2022-10-31T18:32:53.170Z,96.15
2022-10-31T18:34:55.127Z,94.88
2022-10-31T18:36:57.007Z,95.85
2022-10-31T18:38:59.326Z,95.26
2022-10-31T18:41:01.346Z,95.40
2022-10-31T18:43:11.679Z,95.53
2022-10-31T18:45:32.616Z,95.07
2022-10-31T18:47:37.499Z,95.23
2022-10-31T18:49:39.634Z,94.92
2022-10-31T18:51:41.821Z,93.82
2022-10-31T18:53:53.317Z,93.59
2022-10-31T18:55:55.141Z,94.21
2022-10-31T18:57:57.327Z,94.63
2022-10-31T18:59:59.188Z,94.34
2022-10-31T19:02:01.380Z,93.52
2022-10-31T19:04:03.931Z,94.17
2022-10-31T19:06:07.682Z,94.48
2022-10-31T19:08:09.751Z,94.79
2022-10-31T19:10:12.027Z,94.18
2022-10-31T19:12:13.981Z,94.87
2022-10-31T19:14:15.931Z,94.95
2022-10-31T19:16:18.453Z,95.27
2022-10-31T19:18:20.723Z,95.21
2022-10-31T19:20:24.403Z,95.76
2022-10-31T19:22:26.638Z,95.36
2022-10-31T19:24:29.143Z,95.25
2022-10-31T19:26:33.237Z,95.08
2022-10-31T19:28:37.801Z,94.59
2022-10-31T19:30:39.661Z,95.15
2022-10-31T19:32:41.614Z,94.11
2022-10-31T19:34:45.007Z,95.34
2022-10-31T19:36:47.044Z,95.41
2022-10-31T19:38:51.376Z,95.26
2022-10-31T19:41:00.104Z,96.02
2022-10-31T19:43:01.930Z,95.53
2022-10-31T19:45:05.004Z,94.53
2022-10-31T19:47:07.228Z,95.33
2022-10-31T19:49:09.953Z,94.88
2022-10-31T19:51:14.151Z,95.78
2022-10-31T19:53:16.921Z,94.64
2022-10-31T19:55:18.699Z,95.03
2022-10-31T19:57:35.819Z,94.57
2022-10-31T19:59:42.608Z,95.21
2022-10-31T20:01:44.497Z,95.22
2022-10-31T20:03:47.243Z,95.44
2022-10-31T20:05:50.279Z,95.61
2022-10-31T20:07:52.153Z,95.13
2022-10-31T20:09:54.070Z,95.11
2022-10-31T20:11:57.072Z,94.10
2022-10-31T20:13:59.978Z,94.24
2022-10-31T20:16:10.362Z,93.95
2022-10-31T20:18:12.488Z,94.33
2022-10-31T20:20:14.452Z,92.75
2022-10-31T20:22:16.259Z,91.99
2022-10-31T20:24:18.451Z,91.95
2022-10-31T20:26:20.580Z,92.91
2022-10-31T20:28:23.215Z,92.61
2022-10-31T20:30:26.448Z,92.91
2022-10-31T20:32:28.260Z,92.26
2022-10-31T20:34:30.254Z,92.18
2022-10-31T20:36:32.462Z,92.39
2022-10-31T20:38:37.940Z,93.01
2022-10-31T20:40:39.894Z,92.00
2022-10-31T20:42:42.111Z,92.57
2022-10-31T20:44:44.417Z,92.06
2022-10-31T20:46:46.282Z,92.98
2022-10-31T20:48:50.071Z,93.69
2022-10-31T20:50:59.415Z,92.44
2022-10-31T20:53:01.736Z,93.23
2022-10-31T20:55:05.491Z,92.61
2022-10-31T20:57:07.610Z,92.33
2022-10-31T20:59:09.586Z,92.00
2022-10-31T21:01:23.317Z,91.60
2022-10-31T21:03:26.443Z,91.43
2022-10-31T21:05:28.343Z,92.53
2022-10-31T21:07:34.909Z,91.73
2022-10-31T21:09:36.898Z,92.42
2022-10-31T21:11:38.763Z,94.21
2022-10-31T21:13:42.871Z,94.83
2022-10-31T21:15:45.034Z,94.42
2022-10-31T21:17:49.335Z,94.28
2022-10-31T21:19:51.435Z,93.95
2022-10-31T21:21:54.818Z,93.72
2022-10-31T21:23:59.009Z,92.60
2022-10-31T21:26:09.390Z,93.74
2022-10-31T21:28:12.196Z,94.43
2022-10-31T21:30:14.071Z,94.02
2022-10-31T21:32:16.230Z,94.04
2022-10-31T21:34:18.152Z,93.05
2022-10-31T21:36:20.305Z,93.92
2022-10-31T21:38:22.459Z,93.30
2022-10-31T21:40:27.790Z,93.41
2022-10-31T21:42:29.798Z,94.17
2022-10-31T21:44:33.788Z,94.51
2022-10-31T21:46:37.550Z,94.34
2022-10-31T21:48:43.482Z,92.31
2022-10-31T21:50:45.620Z,92.05
2022-10-31T21:52:47.426Z,89.87
2022-10-31T21:54:49.298Z,90.52
2022-10-31T21:56:51.820Z,92.58
2022-10-31T21:58:54.382Z,93.11
2022-10-31T22:01:01.685Z,93.25
2022-10-31T22:03:03.997Z,94.07
2022-10-31T22:05:06.083Z,94.03
2022-10-31T22:07:08.195Z,93.77
2022-10-31T22:09:13.627Z,93.72
2022-10-31T22:11:17.548Z,94.18
2022-10-31T22:13:19.425Z,93.01
2022-10-31T22:15:23.716Z,92.84
2022-10-31T22:17:25.558Z,92.23
2022-10-31T22:19:27.414Z,92.03
2022-10-31T22:21:29.611Z,91.98
2022-10-31T22:23:31.762Z,92.79
2022-10-31T22:25:37.480Z,93.24
2022-10-31T22:27:39.636Z,92.49
2022-10-31T22:29:41.614Z,92.52
2022-10-31T22:31:46.106Z,93.06
2022-10-31T22:33:48.890Z,91.39
2022-10-31T22:35:50.729Z,91.48
2022-10-31T22:37:52.682Z,90.59
2022-10-31T22:39:54.833Z,90.85
2022-10-31T22:41:56.621Z,90.43
2022-10-31T22:43:59.184Z,91.49
2022-10-31T22:46:05.363Z,91.81
2022-10-31T22:48:07.223Z,91.44
2022-10-31T22:50:09.238Z,91.60
2022-10-31T22:52:11.389Z,92.12
2022-10-31T22:54:16.542Z,91.54
2022-10-31T22:56:21.147Z,91.04
2022-10-31T22:58:23.258Z,92.03
2022-10-31T23:00:25.817Z,91.59
2022-10-31T23:02:28.456Z,91.92
2022-10-31T23:04:30.565Z,91.93
2022-10-31T23:06:33.228Z,91.69
2022-10-31T23:08:37.748Z,91.14
2022-10-31T23:10:42.225Z,91.61
2022-10-31T23:13:02.602Z,91.75
2022-10-31T23:15:05.060Z,91.66
2022-10-31T23:17:07.205Z,91.46
2022-10-31T23:19:10.161Z,91.56
2022-10-31T23:21:31.849Z,91.67
2022-10-31T23:23:36.574Z,91.71
2022-10-31T23:25:57.214Z,92.23
2022-10-31T23:27:58.994Z,92.22
2022-10-31T23:30:01.516Z,92.26
2022-10-31T23:32:05.044Z,91.73
2022-10-31T23:34:06.867Z,90.83
2022-10-31T23:36:09.115Z,91.81
2022-10-31T23:38:11.013Z,91.22
2022-10-31T23:40:12.787Z,91.43
2022-10-31T23:42:15.730Z,91.04
2022-10-31T23:44:17.931Z,91.66
2022-10-31T23:46:19.900Z,91.87
2022-10-31T23:48:22.213Z,91.68
2022-10-31T23:50:24.035Z,91.19
2022-10-31T23:52:25.799Z,91.17
2022-10-31T23:54:28.322Z,91.29
2022-10-31T23:56:30.323Z,91.10
2022-10-31T23:58:32.111Z,91.18
